Time;durP1;ratioP1;P1;durP2;ratioP2;P2;SDS_P1;SDS_P2;PMS_P1;PMS_P2;Temp;Humidity;BMP_temperature;BMP_pressure;BME280_temperature;BME280_humidity;BME280_pressure;Samples;Min_cycle;Max_cycle;Signal;HPM_P1;HPM_P2
2021/10/31 00:01:50;;;;;;;24.90;15.27;;;10.50;99.90;;;;;;5110863;27;20688;-70
2021/10/31 00:04:17;;;;;;;28.90;14.98;;;10.50;99.90;;;;;;5111224;27;20103;-67
2021/10/31 00:06:44;;;;;;;26.15;15.93;;;10.40;99.90;;;;;;5111081;27;20493;-67
2021/10/31 00:09:11;;;;;;;25.40;14.82;;;10.40;99.90;;;;;;5111499;27;20054;-67
2021/10/31 00:11:38;;;;;;;24.35;14.57;;;10.50;99.90;;;;;;5110275;27;20592;-70
2021/10/31 00:14:05;;;;;;;25.27;14.93;;;10.50;99.90;;;;;;5110815;27;20499;-70
2021/10/31 00:16:34;;;;;;;24.33;14.50;;;10.50;99.90;;;;;;5111124;27;20112;-70
2021/10/31 00:19:01;;;;;;;22.17;14.93;;;10.50;99.90;;;;;;5115819;27;20247;-70
2021/10/31 00:21:31;;;;;;;24.23;14.07;;;10.50;99.90;;;;;;5111439;27;20484;-70
2021/10/31 00:23:58;;;;;;;22.95;14.88;;;10.50;99.90;;;;;;5110643;27;20051;-70
2021/10/31 00:26:25;;;;;;;24.75;14.63;;;10.50;99.90;;;;;;5109261;27;20051;-67
2021/10/31 00:28:52;;;;;;;23.40;14.70;;;10.50;99.90;;;;;;5111212;27;20047;-74
2021/10/31 00:31:19;;;;;;;27.42;14.43;;;10.40;99.90;;;;;;5110748;27;20043;-69
2021/10/31 00:33:48;;;;;;;22.98;14.18;;;10.50;99.90;;;;;;5110670;27;20111;-69
2021/10/31 00:36:15;;;;;;;24.27;14.43;;;10.50;99.90;;;;;;5109459;27;20047;-69
2021/10/31 00:38:42;;;;;;;23.63;14.52;;;10.50;99.90;;;;;;5109843;27;20465;-69
2021/10/31 00:41:09;;;;;;;24.02;13.27;;;10.60;99.90;;;;;;5109533;27;20496;-69
2021/10/31 00:43:36;;;;;;;23.67;13.18;;;10.60;99.90;;;;;;5109908;27;20529;-69
2021/10/31 00:46:03;;;;;;;22.17;13.40;;;10.60;99.90;;;;;;5109648;27;20050;-69
2021/10/31 00:48:30;;;;;;;23.60;12.98;;;10.60;99.90;;;;;;5113250;27;20449;-69
2021/10/31 00:50:58;;;;;;;21.65;13.32;;;10.60;99.90;;;;;;5115765;27;20514;-69
2021/10/31 00:53:26;;;;;;;22.85;13.48;;;10.60;99.90;;;;;;5114543;27;20499;-69
2021/10/31 00:55:53;;;;;;;23.88;13.40;;;10.50;99.90;;;;;;5116149;27;20119;-69
2021/10/31 00:58:22;;;;;;;21.88;14.00;;;10.60;99.90;;;;;;5114872;27;20138;-69
2021/10/31 01:00:50;;;;;;;21.77;12.85;;;10.50;99.90;;;;;;5114240;27;20065;-71
2021/10/31 01:03:17;;;;;;;25.45;13.15;;;10.40;99.90;;;;;;5112484;27;20400;-71
2021/10/31 01:05:47;;;;;;;20.05;12.88;;;10.40;99.90;;;;;;5112508;27;20284;-71
2021/10/31 01:08:40;;;;;;;21.77;13.07;;;10.50;99.90;;;;;;5112630;27;20057;-71
2021/10/31 01:11:22;;;;;;;22.25;12.52;;;10.40;99.90;;;;;;5112412;27;20043;-70
2021/10/31 01:14:36;;;;;;;23.27;12.20;;;10.30;99.90;;;;;;5113015;27;20047;-71
2021/10/31 01:17:20;;;;;;;20.83;13.50;;;10.20;99.90;;;;;;5077420;27;20051;-71
2021/10/31 01:20:06;;;;;;;19.35;12.77;;;10.20;99.90;;;;;;5114628;27;20123;-72
2021/10/31 01:22:43;;;;;;;21.70;12.85;;;10.10;99.90;;;;;;5111872;27;20130;-69
2021/10/31 01:25:41;;;;;;;25.88;14.32;;;9.90;99.90;;;;;;5111534;27;20104;-68
2021/10/31 01:28:17;;;;;;;23.75;13.85;;;9.80;99.90;;;;;;5111096;27;20082;-71
2021/10/31 01:31:01;;;;;;;22.75;13.80;;;9.60;99.90;;;;;;5112157;27;20055;-71
2021/10/31 01:33:38;;;;;;;24.30;14.23;;;9.60;99.90;;;;;;5111134;28;20577;-71
2021/10/31 01:36:07;;;;;;;;;;;9.50;99.90;;;;;;5114852;28;20682;-72
2021/10/31 01:38:45;;;;;;;23.48;13.63;;;9.60;99.90;;;;;;5114469;28;19969;-71
2021/10/31 01:41:20;;;;;;;25.75;13.77;;;9.50;99.90;;;;;;5114658;28;20049;-71
2021/10/31 01:43:55;;;;;;;23.67;14.18;;;9.50;99.90;;;;;;5113963;28;20083;-71
2021/10/31 01:46:34;;;;;;;22.40;14.07;;;9.60;99.90;;;;;;5114214;28;20047;-72
2021/10/31 01:49:07;;;;;;;26.55;15.00;;;9.40;99.90;;;;;;5114111;28;20055;-71
2021/10/31 01:51:39;;;;;;;24.10;14.65;;;9.60;99.90;;;;;;5114434;27;20087;-70
2021/10/31 01:54:10;;;;;;;24.33;14.63;;;9.60;99.90;;;;;;5119251;27;20080;-72
2021/10/31 01:56:44;;;;;;;25.45;14.10;;;9.50;99.90;;;;;;5117996;27;20939;-71
2021/10/31 01:59:19;;;;;;;24.20;14.45;;;9.50;99.90;;;;;;5118125;27;20047;-71
2021/10/31 02:01:47;;;;;;;22.55;13.82;;;9.60;99.90;;;;;;5118353;27;20472;-71
2021/10/31 02:04:15;;;;;;;25.02;14.43;;;9.70;99.90;;;;;;5118218;27;20503;-71
2021/10/31 02:06:46;;;;;;;23.85;14.57;;;9.60;99.90;;;;;;5118100;27;20050;-73
2021/10/31 02:09:17;;;;;;;21.95;13.55;;;9.60;99.90;;;;;;5115861;27;20043;-72
2021/10/31 02:11:47;;;;;;;21.80;13.57;;;9.70;99.90;;;;;;5114802;27;20132;-70
2021/10/31 02:14:15;;;;;;;26.20;14.32;;;9.70;99.90;;;;;;5115025;27;20543;-71
2021/10/31 02:16:43;;;;;;;24.40;13.88;;;9.60;99.90;;;;;;5114660;27;20047;-71
2021/10/31 02:19:17;;;;;;;22.55;13.82;;;9.60;99.90;;;;;;5115680;27;20151;-71
2021/10/31 02:21:48;;;;;;;22.52;14.75;;;9.70;99.90;;;;;;5115434;27;20047;-71
2021/10/31 02:24:16;;;;;;;24.13;14.45;;;9.60;99.90;;;;;;5115042;27;20063;-72
2021/10/31 02:26:44;;;;;;;23.40;13.98;;;9.60;99.90;;;;;;5114907;27;20491;-70
2021/10/31 02:29:11;;;;;;;23.52;14.43;;;9.60;99.90;;;;;;5115619;27;20423;-68
2021/10/31 02:31:39;;;;;;;22.75;13.60;;;9.60;99.90;;;;;;5115456;27;20126;-68
2021/10/31 02:34:06;;;;;;;21.58;12.90;;;9.70;99.90;;;;;;5114802;27;20058;-69
2021/10/31 02:36:33;;;;;;;21.45;14.15;;;9.80;99.90;;;;;;5114014;27;20055;-68
2021/10/31 02:39:02;;;;;;;23.10;14.40;;;9.90;99.90;;;;;;5113662;27;20108;-68
2021/10/31 02:41:31;;;;;;;22.33;13.80;;;10.00;99.90;;;;;;5113053;27;20101;-68
2021/10/31 02:43:59;;;;;;;24.10;13.70;;;10.10;99.90;;;;;;5112826;27;20401;-68
2021/10/31 02:46:29;;;;;;;23.40;13.82;;;10.00;99.90;;;;;;5111429;27;20081;-68
2021/10/31 02:48:57;;;;;;;27.20;13.77;;;10.10;99.90;;;;;;5113785;27;20047;-68
2021/10/31 02:51:35;;;;;;;21.92;13.30;;;10.00;99.90;;;;;;5113193;27;20051;-68
2021/10/31 02:54:09;;;;;;;21.80;13.55;;;10.10;99.90;;;;;;5116590;27;20135;-68
2021/10/31 02:56:46;;;;;;;22.25;13.73;;;10.00;99.90;;;;;;5115522;27;20126;-69
2021/10/31 02:59:20;;;;;;;21.50;13.32;;;10.00;99.90;;;;;;5117339;27;20054;-69
2021/10/31 03:01:48;;;;;;;21.83;13.32;;;10.00;99.90;;;;;;5116299;27;20518;-69
2021/10/31 03:04:17;;;;;;;20.10;12.15;;;10.00;99.90;;;;;;5114615;27;20119;-69
2021/10/31 03:06:45;;;;;;;19.85;12.15;;;10.10;99.90;;;;;;5115687;27;20534;-69
2021/10/31 03:09:13;;;;;;;19.50;12.55;;;10.20;99.90;;;;;;5116243;27;20051;-69
2021/10/31 03:11:41;;;;;;;22.23;12.88;;;10.30;99.90;;;;;;5116272;27;20047;-68
2021/10/31 03:14:08;;;;;;;21.45;12.95;;;10.20;99.90;;;;;;5116335;27;20104;-69
2021/10/31 03:16:35;;;;;;;23.50;13.48;;;10.20;99.90;;;;;;5115909;27;20051;-68
2021/10/31 03:19:03;;;;;;;21.75;13.40;;;10.10;99.90;;;;;;5116658;27;20051;-68
2021/10/31 03:21:30;;;;;;;22.73;12.00;;;10.10;99.90;;;;;;5117180;27;20055;-68
2021/10/31 03:23:57;;;;;;;20.02;11.88;;;10.20;99.90;;;;;;5116791;27;20543;-69
2021/10/31 03:26:24;;;;;;;20.70;13.57;;;10.10;99.90;;;;;;5116495;27;20051;-68
2021/10/31 03:28:53;;;;;;;22.30;13.27;;;10.10;99.90;;;;;;5116692;27;20061;-69
2021/10/31 03:31:20;;;;;;;22.30;12.80;;;10.10;99.90;;;;;;5116660;27;20155;-68
2021/10/31 03:33:47;;;;;;;19.02;12.02;;;10.10;99.90;;;;;;5116321;27;20099;-68
2021/10/31 03:36:14;;;;;;;21.00;12.35;;;10.00;99.90;;;;;;5116044;27;20564;-69
2021/10/31 03:38:41;;;;;;;21.77;13.23;;;9.90;99.90;;;;;;5116158;27;20121;-68
2021/10/31 03:41:08;;;;;;;20.48;12.77;;;9.80;99.90;;;;;;5116446;27;20051;-69
2021/10/31 03:43:35;;;;;;;20.33;13.13;;;9.60;99.90;;;;;;5116206;27;20094;-68
2021/10/31 03:46:04;;;;;;;22.23;12.90;;;9.50;99.90;;;;;;5114479;27;20087;-68
2021/10/31 03:48:31;;;;;;;22.83;14.32;;;9.40;99.90;;;;;;5112935;27;20051;-69
2021/10/31 03:50:58;;;;;;;19.45;12.68;;;9.40;99.90;;;;;;5112751;27;20043;-68
2021/10/31 03:53:25;;;;;;;23.70;14.20;;;9.10;99.90;;;;;;5112388;27;20082;-69
2021/10/31 03:55:52;;;;;;;24.15;14.43;;;9.10;99.90;;;;;;5114274;27;20074;-69
2021/10/31 03:58:19;;;;;;;21.98;14.20;;;9.20;99.90;;;;;;5114167;27;20461;-68
2021/10/31 04:00:46;;;;;;;24.70;14.82;;;9.00;99.90;;;;;;5112997;27;20396;-68
2021/10/31 04:03:14;;;;;;;24.58;13.43;;;8.90;99.90;;;;;;5112896;27;21496;-69
2021/10/31 04:05:41;;;;;;;22.17;13.55;;;8.90;99.90;;;;;;5112552;27;20047;-69
2021/10/31 04:08:08;;;;;;;21.48;12.50;;;8.90;99.90;;;;;;5113170;27;20134;-68
2021/10/31 04:10:35;;;;;;;21.65;12.70;;;9.10;99.90;;;;;;5112953;27;20058;-68
2021/10/31 04:13:02;;;;;;;20.63;12.50;;;9.30;99.90;;;;;;5111336;27;20135;-68
2021/10/31 04:15:29;;;;;;;20.88;11.98;;;9.40;99.90;;;;;;5110964;27;20051;-68
2021/10/31 04:17:56;;;;;;;17.48;11.25;;;9.30;99.90;;;;;;5111534;27;20096;-71
2021/10/31 04:20:25;;;;;;;19.50;11.18;;;9.60;99.90;;;;;;5109943;27;20083;-71
2021/10/31 04:22:52;;;;;;;17.67;10.50;;;9.60;99.90;;;;;;5111269;27;20649;-71
2021/10/31 04:25:19;;;;;;;17.00;10.80;;;9.80;99.90;;;;;;5111408;27;20047;-71
2021/10/31 04:27:46;;;;;;;19.08;10.90;;;9.90;99.90;;;;;;5113470;27;20093;-71
2021/10/31 04:30:13;;;;;;;18.60;10.85;;;9.90;99.90;;;;;;5114109;27;20088;-71
2021/10/31 04:32:41;;;;;;;20.05;11.40;;;9.80;99.90;;;;;;5114165;27;20051;-71
2021/10/31 04:35:09;;;;;;;20.30;12.52;;;9.50;99.90;;;;;;5114922;27;20095;-71
2021/10/31 04:37:39;;;;;;;21.33;12.48;;;9.20;99.90;;;;;;5114695;27;20086;-71
2021/10/31 04:40:10;;;;;;;21.25;12.50;;;9.10;99.90;;;;;;5115312;27;20062;-71
2021/10/31 04:42:37;;;;;;;23.35;12.35;;;9.10;99.90;;;;;;5115482;27;20054;-71
2021/10/31 04:45:05;;;;;;;21.60;12.32;;;9.10;99.90;;;;;;5114710;27;20047;-70
2021/10/31 04:47:32;;;;;;;23.77;12.93;;;9.20;99.90;;;;;;5114464;27;20112;-71
2021/10/31 04:49:59;;;;;;;21.10;12.55;;;9.20;99.90;;;;;;5114908;27;21117;-72
2021/10/31 04:52:26;;;;;;;25.75;14.20;;;9.00;99.90;;;;;;5114552;27;20088;-71
2021/10/31 04:54:54;;;;;;;23.70;13.15;;;8.90;99.90;;;;;;5114612;27;20107;-72
2021/10/31 04:57:21;;;;;;;27.05;14.32;;;8.80;99.90;;;;;;5114205;27;20080;-71
2021/10/31 04:59:48;;;;;;;25.17;13.50;;;8.70;99.90;;;;;;5114467;27;20107;-71
2021/10/31 05:02:15;;;;;;;22.63;13.75;;;8.60;99.90;;;;;;5113310;27;20099;-72
2021/10/31 05:04:42;;;;;;;25.70;13.63;;;8.60;99.90;;;;;;5110236;27;20461;-72
2021/10/31 05:07:09;;;;;;;27.50;14.93;;;8.40;99.90;;;;;;5108676;27;20051;-71
2021/10/31 05:09:36;;;;;;;25.52;13.65;;;8.40;99.90;;;;;;5111826;27;20055;-71
2021/10/31 05:12:05;;;;;;;24.08;13.40;;;8.40;99.90;;;;;;5111649;27;20548;-71
2021/10/31 05:14:32;;;;;;;24.88;13.65;;;8.40;99.90;;;;;;5110076;27;21145;-71
2021/10/31 05:17:00;;;;;;;22.58;13.15;;;8.50;99.90;;;;;;5108826;27;20043;-71
2021/10/31 05:19:27;;;;;;;24.17;13.63;;;8.50;99.90;;;;;;5108471;27;20051;-71
2021/10/31 05:21:54;;;;;;;23.42;14.32;;;8.50;99.90;;;;;;5111558;27;20045;-71
2021/10/31 05:24:21;;;;;;;22.02;13.63;;;8.40;99.90;;;;;;5112633;27;20107;-71
2021/10/31 05:26:48;;;;;;;24.17;13.77;;;8.30;99.90;;;;;;5112758;27;20111;-71
2021/10/31 05:29:16;;;;;;;24.77;14.40;;;8.20;99.90;;;;;;5111614;27;20072;-72
2021/10/31 05:31:43;;;;;;;24.60;13.80;;;8.10;99.90;;;;;;5112914;27;20086;-71
2021/10/31 05:34:11;;;;;;;25.55;15.30;;;8.10;99.90;;;;;;5113952;27;20103;-71
2021/10/31 05:36:38;;;;;;;24.27;13.70;;;8.20;99.90;;;;;;5112930;28;20053;-73
2021/10/31 05:39:06;;;;;;;26.33;14.77;;;8.20;99.90;;;;;;5113313;28;20062;-71
2021/10/31 05:41:33;;;;;;;27.98;14.30;;;8.30;99.90;;;;;;5113090;28;20071;-71
2021/10/31 05:44:01;;;;;;;22.48;13.43;;;8.30;99.90;;;;;;5114336;27;20067;-71
2021/10/31 05:46:31;;;;;;;24.15;14.00;;;8.20;99.90;;;;;;5113347;28;20047;-72
2021/10/31 05:48:58;;;;;;;26.02;14.48;;;8.20;99.90;;;;;;5114017;28;20050;-71
2021/10/31 05:51:25;;;;;;;27.08;14.43;;;8.20;99.90;;;;;;5113515;28;20090;-70
2021/10/31 05:53:52;;;;;;;26.08;14.60;;;8.10;99.90;;;;;;5113153;27;20116;-71
2021/10/31 05:56:19;;;;;;;28.00;14.45;;;8.00;99.90;;;;;;5112665;28;20096;-69
2021/10/31 05:58:47;;;;;;;22.73;12.70;;;8.00;99.90;;;;;;5113604;28;20043;-69
2021/10/31 06:01:14;;;;;;;27.17;14.27;;;7.90;99.90;;;;;;5113457;28;20055;-69
2021/10/31 06:03:42;;;;;;;24.40;14.13;;;7.90;99.90;;;;;;5113313;28;20043;-69
2021/10/31 06:06:10;;;;;;;25.75;15.35;;;7.80;99.90;;;;;;5112807;28;20104;-69
2021/10/31 06:08:37;;;;;;;28.48;15.15;;;7.80;99.90;;;;;;5112833;28;20444;-69
2021/10/31 06:11:04;;;;;;;26.85;14.68;;;7.70;99.90;;;;;;5113566;28;20047;-70
2021/10/31 06:13:31;;;;;;;29.67;15.23;;;7.60;99.90;;;;;;5112402;28;20047;-69
2021/10/31 06:15:58;;;;;;;23.67;13.90;;;7.70;99.90;;;;;;5112608;28;20202;-69
2021/10/31 06:18:25;;;;;;;26.48;15.18;;;7.70;99.90;;;;;;5111497;28;20519;-69
2021/10/31 06:20:53;;;;;;;26.75;15.15;;;7.60;99.90;;;;;;5109765;28;20101;-70
2021/10/31 06:23:20;;;;;;;27.65;15.45;;;7.50;99.90;;;;;;5109393;28;20658;-71
2021/10/31 06:25:47;;;;;;;31.45;16.25;;;7.60;99.90;;;;;;5108706;28;20047;-69
2021/10/31 06:28:14;;;;;;;27.10;14.55;;;7.60;99.90;;;;;;5110052;28;20448;-69
2021/10/31 06:30:41;;;;;;;26.05;15.30;;;7.60;99.90;;;;;;5109583;28;20051;-70
2021/10/31 06:33:08;;;;;;;30.80;15.93;;;7.60;99.90;;;;;;5109582;28;20491;-69
2021/10/31 06:35:35;;;;;;;26.45;16.02;;;7.70;99.90;;;;;;5108818;28;21125;-72
2021/10/31 06:38:03;;;;;;;26.08;14.50;;;7.60;99.90;;;;;;5110478;27;20120;-69
2021/10/31 06:40:30;;;;;;;26.90;15.43;;;7.80;99.90;;;;;;5112376;27;20453;-69
2021/10/31 06:42:57;;;;;;;28.70;15.43;;;7.80;99.90;;;;;;5113079;27;20053;-69
2021/10/31 06:45:25;;;;;;;23.85;14.27;;;7.90;99.90;;;;;;5111661;27;20461;-69
2021/10/31 06:47:52;;;;;;;26.88;14.90;;;7.90;99.90;;;;;;5113163;27;20065;-69
2021/10/31 06:50:19;;;;;;;29.67;16.08;;;7.90;99.90;;;;;;5112355;27;21403;-69
2021/10/31 06:52:49;;;;;;;26.52;14.48;;;7.90;99.90;;;;;;5113518;27;20054;-69
2021/10/31 06:55:17;;;;;;;28.90;14.73;;;8.10;99.90;;;;;;5111337;27;20987;-70
2021/10/31 06:57:44;;;;;;;26.08;15.52;;;8.20;99.90;;;;;;5113419;27;20047;-70
2021/10/31 07:00:12;;;;;;;24.25;14.70;;;8.20;99.90;;;;;;5113069;27;20154;-70
2021/10/31 07:02:39;;;;;;;29.23;15.70;;;8.40;99.90;;;;;;5116952;27;20063;-70
2021/10/31 07:05:07;;;;;;;27.08;15.27;;;8.60;99.90;;;;;;5116802;27;20100;-70
2021/10/31 07:07:35;;;;;;;24.63;14.30;;;8.80;99.90;;;;;;5117475;27;20051;-69
2021/10/31 07:10:02;;;;;;;28.02;15.02;;;9.00;99.90;;;;;;5117284;27;20047;-70
2021/10/31 07:12:30;;;;;;;25.00;14.13;;;9.30;99.90;;;;;;5117153;27;20051;-70
2021/10/31 07:14:57;;;;;;;26.50;14.88;;;9.50;99.90;;;;;;5116955;27;20550;-69
2021/10/31 07:17:24;;;;;;;24.45;14.18;;;9.60;99.90;;;;;;5116776;27;21233;-70
2021/10/31 07:19:51;;;;;;;27.77;14.88;;;9.80;99.90;;;;;;5116821;27;20477;-69
2021/10/31 07:22:19;;;;;;;24.77;14.40;;;9.90;99.90;;;;;;5116534;27;20043;-70
2021/10/31 07:24:51;;;;;;;25.27;14.35;;;10.10;99.90;;;;;;5116074;27;20495;-69
2021/10/31 07:27:18;;;;;;;19.45;13.82;;;10.20;99.90;;;;;;5116170;27;20051;-70
2021/10/31 07:29:46;;;;;;;20.33;13.23;;;10.40;99.90;;;;;;5116291;27;20094;-71
2021/10/31 07:32:13;;;;;;;24.88;13.38;;;10.50;99.90;;;;;;5115777;27;21431;-70
2021/10/31 07:34:40;;;;;;;21.63;12.77;;;10.70;99.90;;;;;;5116353;27;20107;-70
2021/10/31 07:37:07;;;;;;;21.25;12.90;;;10.80;99.90;;;;;;5115753;27;20099;-70
2021/10/31 07:39:35;;;;;;;22.63;13.93;;;10.80;99.90;;;;;;5114753;27;20047;-69
2021/10/31 07:42:02;;;;;;;20.90;12.60;;;10.90;99.90;;;;;;5117002;27;20112;-70
2021/10/31 07:44:29;;;;;;;20.88;12.98;;;10.80;99.90;;;;;;5115973;27;20449;-69
2021/10/31 07:46:58;;;;;;;23.85;13.60;;;10.90;99.90;;;;;;5115215;27;20050;-70
2021/10/31 07:49:25;;;;;;;20.38;12.57;;;11.10;99.90;;;;;;5114905;27;20043;-70
2021/10/31 07:51:52;;;;;;;20.10;12.38;;;11.10;99.90;;;;;;5115994;27;20193;-70
2021/10/31 07:54:23;;;;;;;20.50;12.93;;;11.20;99.90;;;;;;5116081;27;20107;-69
2021/10/31 07:56:53;;;;;;;21.27;12.85;;;11.40;99.90;;;;;;5116082;27;20490;-69
2021/10/31 07:59:20;;;;;;;20.73;12.10;;;11.60;99.90;;;;;;5116082;27;20047;-67
2021/10/31 08:01:48;;;;;;;19.30;11.68;;;11.80;99.90;;;;;;5114690;27;20069;-69
2021/10/31 08:04:17;;;;;;;21.00;11.40;;;12.00;99.90;;;;;;5114612;27;20058;-70
2021/10/31 08:06:45;;;;;;;17.45;11.40;;;12.20;99.90;;;;;;5114539;27;20061;-70
2021/10/31 08:09:12;;;;;;;20.13;11.10;;;12.60;99.90;;;;;;5115961;27;20102;-70
2021/10/31 08:11:42;;;;;;;17.35;11.52;;;13.10;99.90;;;;;;5115970;27;20047;-69
2021/10/31 08:14:09;;;;;;;15.82;10.45;;;13.60;99.90;;;;;;5115845;27;20062;-70
2021/10/31 08:16:37;;;;;;;20.05;10.82;;;14.50;99.90;;;;;;5115455;27;20047;-70
2021/10/31 08:19:04;;;;;;;15.70;10.27;;;15.60;99.90;;;;;;5114328;27;20347;-70
2021/10/31 08:21:33;;;;;;;16.13;9.57;;;16.10;99.90;;;;;;5115218;27;20053;-70
2021/10/31 08:24:00;;;;;;;15.75;10.02;;;16.80;99.90;;;;;;5114540;27;20484;-69
2021/10/31 08:26:28;;;;;;;16.73;11.27;;;17.00;99.90;;;;;;5113711;27;20139;-70
2021/10/31 08:28:56;;;;;;;16.23;11.43;;;17.20;99.90;;;;;;5115654;27;20104;-70
2021/10/31 08:31:27;;;;;;;15.57;9.85;;;16.60;99.90;;;;;;5114484;27;20066;-70
2021/10/31 08:33:57;;;;;;;16.50;10.48;;;16.70;99.90;;;;;;5114118;27;20053;-70
2021/10/31 08:36:25;;;;;;;14.95;10.23;;;16.70;99.90;;;;;;5113993;27;20138;-69
2021/10/31 08:38:54;;;;;;;14.15;9.85;;;17.10;99.90;;;;;;5114456;27;20051;-70
2021/10/31 08:41:23;;;;;;;14.70;8.93;;;17.40;99.90;;;;;;5114797;27;20112;-69
2021/10/31 08:43:50;;;;;;;15.07;9.70;;;17.50;99.90;;;;;;5113730;27;20131;-71
2021/10/31 08:46:17;;;;;;;14.93;9.88;;;18.60;99.90;;;;;;5112889;27;20090;-70
2021/10/31 08:48:44;;;;;;;14.65;9.52;;;18.00;99.90;;;;;;5113276;27;20090;-70
2021/10/31 08:51:11;;;;;;;15.98;9.73;;;19.00;99.90;;;;;;5111294;27;20509;-70
2021/10/31 08:53:39;;;;;;;14.40;9.50;;;18.70;99.90;;;;;;5110011;27;20047;-70
2021/10/31 08:56:11;;;;;;;15.65;9.68;;;19.20;99.90;;;;;;5109360;27;20099;-69
2021/10/31 08:58:38;;;;;;;15.02;9.55;;;18.50;99.90;;;;;;5114549;27;20522;-70
2021/10/31 09:01:05;;;;;;;15.43;9.73;;;17.50;99.90;;;;;;5113704;27;20146;-70
2021/10/31 09:03:32;;;;;;;14.35;9.70;;;17.30;99.90;;;;;;5113690;27;20082;-70
2021/10/31 09:06:00;;;;;;;17.55;10.52;;;16.80;99.90;;;;;;5113688;27;20097;-69
2021/10/31 09:08:27;;;;;;;15.85;9.20;;;17.80;99.90;;;;;;5113318;27;20047;-70
2021/10/31 09:10:54;;;;;;;15.02;9.75;;;18.20;99.90;;;;;;5113225;27;20782;-71
2021/10/31 09:13:23;;;;;;;14.32;9.15;;;18.80;99.90;;;;;;5112562;27;20047;-70
2021/10/31 09:15:51;;;;;;;14.10;8.65;;;18.10;99.90;;;;;;5112141;27;20050;-70
2021/10/31 09:18:18;;;;;;;15.10;9.45;;;18.60;99.90;;;;;;5113205;27;20055;-70
2021/10/31 09:20:46;;;;;;;12.65;8.43;;;18.40;99.90;;;;;;5114213;27;20047;-70
2021/10/31 09:23:15;;;;;;;15.93;9.15;;;19.50;99.90;;;;;;5113053;27;20096;-70
2021/10/31 09:25:42;;;;;;;13.68;8.88;;;19.10;99.90;;;;;;5112341;27;20141;-70
2021/10/31 09:28:09;;;;;;;15.05;8.43;;;19.10;99.90;;;;;;5112163;27;20268;-70
2021/10/31 09:30:39;;;;;;;12.70;8.52;;;18.80;99.90;;;;;;5110615;27;20043;-70
2021/10/31 09:33:07;;;;;;;14.88;8.75;;;19.00;99.90;;;;;;5113302;27;21035;-70
2021/10/31 09:35:42;;;;;;;13.65;8.15;;;19.90;99.90;;;;;;5112746;28;20059;-71
2021/10/31 09:38:10;;;;;;;15.20;9.20;;;19.40;99.90;;;;;;5109328;28;20400;-70
2021/10/31 09:40:38;;;;;;;15.57;9.80;;;18.80;99.90;;;;;;5112223;28;20044;-71
2021/10/31 09:43:05;;;;;;;13.35;8.43;;;20.20;99.90;;;;;;5112856;27;20083;-70
2021/10/31 09:45:35;;;;;;;12.38;8.90;;;20.60;99.90;;;;;;5113263;28;20403;-69
2021/10/31 09:48:05;;;;;;;13.48;8.57;;;20.20;99.90;;;;;;5113268;28;20151;-70
2021/10/31 09:50:35;;;;;;;12.45;8.27;;;19.40;99.90;;;;;;5112178;28;20654;-70
2021/10/31 09:53:02;;;;;;;13.65;9.40;;;19.80;99.90;;;;;;5111436;27;20706;-71
2021/10/31 09:55:29;;;;;;;14.52;9.18;;;20.00;99.90;;;;;;5108348;28;20059;-70
2021/10/31 09:57:56;;;;;;;14.25;9.52;;;20.90;99.90;;;;;;5113483;28;20055;-70
2021/10/31 10:00:35;;;;;;;15.48;9.98;;;21.40;99.90;;;;;;5113895;28;20100;-69
2021/10/31 10:03:22;;;;;;;15.90;9.75;;;22.10;99.90;;;;;;5113899;28;20061;-69
2021/10/31 10:05:51;;;;;;;13.40;9.07;;;22.00;99.90;;;;;;5110199;28;20063;-70
2021/10/31 10:08:19;;;;;;;14.07;9.65;;;23.70;99.90;;;;;;5109101;28;20111;-70
2021/10/31 10:10:49;;;;;;;14.57;9.38;;;25.00;99.90;;;;;;5109012;28;20081;-70
2021/10/31 10:13:21;;;;;;;13.90;8.77;;;26.20;99.90;;;;;;5113041;27;20071;-70
2021/10/31 10:15:50;;;;;;;13.70;9.10;;;28.00;99.90;;;;;;5113629;27;20517;-70
2021/10/31 10:18:33;;;;;;;14.60;9.55;;;27.70;99.90;;;;;;5118338;27;20059;-70
2021/10/31 10:21:16;;;;;;;11.93;8.60;;;28.10;99.70;;;;;;5118396;27;20062;-70
2021/10/31 10:24:01;;;;;;;13.98;9.27;;;26.20;99.40;;;;;;5117595;27;20495;-70
2021/10/31 10:26:33;;;;;;;12.77;8.63;;;27.30;99.90;;;;;;5117767;27;20116;-70
2021/10/31 10:29:14;;;;;;;12.13;8.27;;;29.60;98.60;;;;;;5120039;27;20070;-70
2021/10/31 10:31:42;;;;;;;13.75;9.13;;;29.50;97.10;;;;;;5118021;27;20523;-71
2021/10/31 10:34:11;;;;;;;14.20;8.93;;;29.00;97.80;;;;;;5117478;27;20469;-70
2021/10/31 10:36:41;;;;;;;11.38;8.60;;;28.40;96.80;;;;;;5116395;27;20442;-70
2021/10/31 10:39:10;;;;;;;12.15;8.27;;;29.40;97.90;;;;;;5117289;27;20047;-70
2021/10/31 10:41:38;;;;;;;11.45;8.52;;;30.80;96.10;;;;;;5116966;27;20047;-70
2021/10/31 10:44:20;;;;;;;12.05;7.32;;;29.20;95.80;;;;;;5113313;27;20055;-70
2021/10/31 10:46:49;;;;;;;13.02;8.48;;;29.10;96.60;;;;;;5111950;27;20056;-70
2021/10/31 10:49:20;;;;;;;9.80;6.93;;;28.40;97.50;;;;;;5113160;27;20050;-70
2021/10/31 10:52:06;;;;;;;16.02;7.35;;;29.20;97.00;;;;;;5112378;27;20054;-71
2021/10/31 10:54:33;;;;;;;10.30;7.80;;;26.20;98.80;;;;;;5112202;27;20499;-70
2021/10/31 10:57:02;;;;;;;9.57;6.63;;;26.80;98.30;;;;;;5111494;27;20051;-70
2021/10/31 10:59:30;;;;;;;10.35;7.65;;;27.70;97.90;;;;;;5111605;27;20101;-71
2021/10/31 11:02:10;;;;;;;10.20;7.78;;;29.80;97.30;;;;;;5112218;27;20057;-70
2021/10/31 11:04:40;;;;;;;10.02;6.90;;;28.90;97.30;;;;;;5112205;27;20164;-70
2021/10/31 11:07:08;;;;;;;10.88;7.10;;;28.60;96.50;;;;;;5111383;27;20134;-70
2021/10/31 11:09:44;;;;;;;11.70;6.43;;;28.00;96.60;;;;;;5112374;27;20058;-70
2021/10/31 11:12:28;;;;;;;10.67;7.07;;;28.60;97.40;;;;;;5112267;27;20055;-70
2021/10/31 11:14:57;;;;;;;12.10;6.90;;;28.60;97.50;;;;;;5114969;27;20334;-70
2021/10/31 11:17:25;;;;;;;14.02;7.05;;;28.70;96.70;;;;;;5113857;27;20055;-70
2021/10/31 11:19:55;;;;;;;9.55;6.20;;;28.90;96.20;;;;;;5114717;27;20169;-70
2021/10/31 11:22:23;;;;;;;11.40;6.53;;;28.50;95.90;;;;;;5116673;27;20072;-70
2021/10/31 11:24:51;;;;;;;10.55;6.78;;;29.10;96.60;;;;;;5116527;27;20051;-70
2021/10/31 11:27:21;;;;;;;9.48;7.00;;;28.90;95.90;;;;;;5117268;27;20051;-70
2021/10/31 11:29:49;;;;;;;9.95;6.97;;;28.30;96.80;;;;;;5115699;27;20511;-70
2021/10/31 11:32:18;;;;;;;10.23;6.90;;;27.90;97.50;;;;;;5116633;27;20051;-70
2021/10/31 11:34:47;;;;;;;10.20;7.43;;;29.10;96.10;;;;;;5117152;27;20137;-71
2021/10/31 11:37:19;;;;;;;11.73;7.03;;;27.80;96.40;;;;;;5115956;27;20055;-70
2021/10/31 11:39:47;;;;;;;10.10;7.00;;;27.80;96.70;;;;;;5115687;27;20575;-71
2021/10/31 11:42:17;;;;;;;9.20;6.50;;;27.90;96.60;;;;;;5114562;27;20055;-70
2021/10/31 11:45:07;;;;;;;7.82;5.82;;;29.70;96.40;;;;;;5110945;27;20083;-71
2021/10/31 11:47:37;;;;;;;8.13;6.10;;;30.80;95.20;;;;;;5110979;27;20059;-71
2021/10/31 11:50:22;;;;;;;9.27;5.70;;;31.40;94.60;;;;;;5112820;27;20126;-71
2021/10/31 11:52:56;;;;;;;9.40;6.10;;;30.40;94.40;;;;;;5113374;27;20136;-71
2021/10/31 11:59:00;;;;;;;8.55;6.10;;;28.60;95.10;;;;;;5117021;27;20055;-71
2021/10/31 12:01:34;;;;;;;8.15;5.82;;;29.10;94.50;;;;;;5114634;27;20051;-70
2021/10/31 12:04:03;;;;;;;8.60;6.00;;;27.30;95.80;;;;;;5114678;27;20137;-71
2021/10/31 12:06:53;;;;;;;8.48;5.55;;;27.70;95.50;;;;;;5114838;27;20391;-71
2021/10/31 12:09:32;;;;;;;8.73;6.15;;;29.00;95.80;;;;;;5115557;27;20051;-71
2021/10/31 12:12:16;;;;;;;8.45;5.88;;;29.80;95.10;;;;;;5115402;27;20055;-70
2021/10/31 12:14:59;;;;;;;7.05;5.35;;;28.70;94.70;;;;;;5116318;27;20428;-70
2021/10/31 12:17:48;;;;;;;9.20;5.32;;;29.50;94.20;;;;;;5112592;27;20086;-71
2021/10/31 12:20:35;;;;;;;6.47;4.43;;;29.80;93.90;;;;;;5115888;27;20511;-71
2021/10/31 12:23:19;;;;;;;6.38;4.13;;;27.80;95.30;;;;;;5115682;27;20059;-70
2021/10/31 12:25:48;;;;;;;8.45;5.30;;;29.40;95.70;;;;;;5115917;27;20153;-70
2021/10/31 12:28:40;;;;;;;8.20;5.40;;;29.50;94.40;;;;;;5117793;27;20059;-71
2021/10/31 12:31:28;;;;;;;8.15;5.28;;;29.60;94.90;;;;;;5116943;27;20048;-71
2021/10/31 12:34:11;;;;;;;9.75;4.78;;;29.80;95.10;;;;;;5115791;27;20043;-71
2021/10/31 12:36:42;;;;;;;7.43;4.20;;;29.00;94.30;;;;;;5114126;27;20462;-71
2021/10/31 12:39:45;;;;;;;6.97;4.57;;;28.90;96.00;;;;;;5116477;27;20086;-72
2021/10/31 12:42:16;;;;;;;6.45;4.10;;;28.10;95.30;;;;;;5114645;27;20507;-71
2021/10/31 12:44:45;;;;;;;5.85;4.13;;;27.30;95.20;;;;;;5114724;27;20043;-70
2021/10/31 12:47:16;;;;;;;8.77;4.85;;;26.50;95.90;;;;;;5111016;27;20055;-71
2021/10/31 12:49:44;;;;;;;8.88;4.75;;;27.70;96.90;;;;;;5110344;27;20496;-70
2021/10/31 12:52:25;;;;;;;7.88;4.70;;;29.40;96.20;;;;;;5111164;27;20103;-71
2021/10/31 12:54:57;;;;;;;7.15;4.50;;;28.40;94.80;;;;;;5110616;27;20047;-70